sensor_id;sensor_type;location;lat;lon;timestamp;P1;durP1;ratioP1;P2;durP2;ratioP2
47892;SDS011;33650;51.064;13.756;2022-10-26T00:01:14;2.22;;;1.85;;
47892;SDS011;33650;51.064;13.756;2022-10-26T00:03:45;3.28;;;2.05;;
47892;SDS011;33650;51.064;13.756;2022-10-26T00:06:17;3.17;;;1.63;;
47892;SDS011;33650;51.064;13.756;2022-10-26T00:08:49;1.42;;;1.33;;
47892;SDS011;33650;51.064;13.756;2022-10-26T00:11:20;2.47;;;1.63;;
47892;SDS011;33650;51.064;13.756;2022-10-26T00:13:51;4.38;;;3.40;;
47892;SDS011;33650;51.064;13.756;2022-10-26T00:16:24;4.70;;;1.98;;
47892;SDS011;33650;51.064;13.756;2022-10-26T00:18:55;2.08;;;1.88;;
47892;SDS011;33650;51.064;13.756;2022-10-26T00:21:26;2.63;;;1.75;;
47892;SDS011;33650;51.064;13.756;2022-10-26T00:23:58;4.72;;;2.90;;
47892;SDS011;33650;51.064;13.756;2022-10-26T00:26:29;6.95;;;3.38;;
47892;SDS011;33650;51.064;13.756;2022-10-26T00:29:00;4.45;;;1.73;;
47892;SDS011;33650;51.064;13.756;2022-10-26T00:31:32;3.83;;;1.40;;
47892;SDS011;33650;51.064;13.756;2022-10-26T00:34:03;2.35;;;2.13;;
47892;SDS011;33650;51.064;13.756;2022-10-26T00:36:34;2.20;;;2.00;;
47892;SDS011;33650;51.064;13.756;2022-10-26T00:39:05;6.13;;;1.55;;
47892;SDS011;33650;51.064;13.756;2022-10-26T00:41:36;2.50;;;2.30;;
47892;SDS011;33650;51.064;13.756;2022-10-26T00:46:57;1.52;;;1.42;;
47892;SDS011;33650;51.064;13.756;2022-10-26T00:49:28;1.40;;;1.23;;
47892;SDS011;33650;51.064;13.756;2022-10-26T00:51:59;2.67;;;2.55;;
47892;SDS011;33650;51.064;13.756;2022-10-26T00:54:30;1.90;;;1.23;;
47892;SDS011;33650;51.064;13.756;2022-10-26T00:57:01;3.97;;;2.22;;
47892;SDS011;33650;51.064;13.756;2022-10-26T00:59:32;1.48;;;1.30;;
47892;SDS011;33650;51.064;13.756;2022-10-26T01:02:03;2.67;;;1.80;;
47892;SDS011;33650;51.064;13.756;2022-10-26T01:04:34;1.70;;;1.33;;
47892;SDS011;33650;51.064;13.756;2022-10-26T01:07:06;1.88;;;1.73;;
47892;SDS011;33650;51.064;13.756;2022-10-26T01:09:38;2.30;;;1.90;;
47892;SDS011;33650;51.064;13.756;2022-10-26T01:12:09;2.47;;;2.28;;
47892;SDS011;33650;51.064;13.756;2022-10-26T01:14:40;2.33;;;1.63;;
47892;SDS011;33650;51.064;13.756;2022-10-26T01:22:19;1.55;;;0.75;;
47892;SDS011;33650;51.064;13.756;2022-10-26T01:24:57;2.92;;;1.25;;
47892;SDS011;33650;51.064;13.756;2022-10-26T01:27:35;1.13;;;0.70;;
47892;SDS011;33650;51.064;13.756;2022-10-26T01:41:03;3.58;;;2.20;;
47892;SDS011;33650;51.064;13.756;2022-10-26T01:43:36;1.60;;;1.35;;
47892;SDS011;33650;51.064;13.756;2022-10-26T01:46:08;7.00;;;3.28;;
47892;SDS011;33650;51.064;13.756;2022-10-26T01:48:40;3.65;;;2.90;;
47892;SDS011;33650;51.064;13.756;2022-10-26T01:51:11;3.17;;;2.13;;
47892;SDS011;33650;51.064;13.756;2022-10-26T01:53:44;3.70;;;2.33;;
47892;SDS011;33650;51.064;13.756;2022-10-26T01:56:20;2.45;;;2.10;;
47892;SDS011;33650;51.064;13.756;2022-10-26T02:12:19;2.70;;;1.52;;
47892;SDS011;33650;51.064;13.756;2022-10-26T02:14:56;1.27;;;1.20;;
47892;SDS011;33650;51.064;13.756;2022-10-26T02:17:32;1.73;;;1.17;;
47892;SDS011;33650;51.064;13.756;2022-10-26T02:20:05;4.72;;;1.92;;
47892;SDS011;33650;51.064;13.756;2022-10-26T02:22:40;2.83;;;2.53;;
47892;SDS011;33650;51.064;13.756;2022-10-26T02:25:29;2.05;;;1.20;;
47892;SDS011;33650;51.064;13.756;2022-10-26T02:28:03;1.50;;;1.30;;
47892;SDS011;33650;51.064;13.756;2022-10-26T02:30:35;3.30;;;1.38;;
47892;SDS011;33650;51.064;13.756;2022-10-26T02:33:09;2.40;;;1.10;;
47892;SDS011;33650;51.064;13.756;2022-10-26T02:35:42;6.72;;;1.88;;
47892;SDS011;33650;51.064;13.756;2022-10-26T02:38:15;1.73;;;1.30;;
47892;SDS011;33650;51.064;13.756;2022-10-26T02:40:47;2.65;;;2.45;;
47892;SDS011;33650;51.064;13.756;2022-10-26T02:43:20;4.80;;;3.00;;
47892;SDS011;33650;51.064;13.756;2022-10-26T02:45:52;6.10;;;1.45;;
47892;SDS011;33650;51.064;13.756;2022-10-26T02:48:24;6.30;;;2.00;;
47892;SDS011;33650;51.064;13.756;2022-10-26T02:55:57;1.85;;;1.48;;
47892;SDS011;33650;51.064;13.756;2022-10-26T02:58:30;3.42;;;2.75;;
47892;SDS011;33650;51.064;13.756;2022-10-26T03:01:03;3.97;;;2.35;;
47892;SDS011;33650;51.064;13.756;2022-10-26T03:03:34;2.35;;;2.15;;
47892;SDS011;33650;51.064;13.756;2022-10-26T03:06:05;4.85;;;2.80;;
47892;SDS011;33650;51.064;13.756;2022-10-26T03:08:36;3.30;;;2.92;;
47892;SDS011;33650;51.064;13.756;2022-10-26T03:11:07;2.72;;;2.10;;
47892;SDS011;33650;51.064;13.756;2022-10-26T03:13:38;4.18;;;2.45;;
47892;SDS011;33650;51.064;13.756;2022-10-26T03:16:09;6.15;;;2.55;;
47892;SDS011;33650;51.064;13.756;2022-10-26T03:18:40;3.28;;;2.67;;
47892;SDS011;33650;51.064;13.756;2022-10-26T03:21:12;4.45;;;1.98;;
47892;SDS011;33650;51.064;13.756;2022-10-26T03:23:42;4.20;;;2.05;;
47892;SDS011;33650;51.064;13.756;2022-10-26T03:26:16;3.25;;;2.40;;
47892;SDS011;33650;51.064;13.756;2022-10-26T03:28:47;2.90;;;1.45;;
47892;SDS011;33650;51.064;13.756;2022-10-26T03:31:18;1.55;;;1.45;;
47892;SDS011;33650;51.064;13.756;2022-10-26T03:33:49;3.35;;;2.38;;
47892;SDS011;33650;51.064;13.756;2022-10-26T03:36:20;5.05;;;2.25;;
47892;SDS011;33650;51.064;13.756;2022-10-26T03:38:51;1.98;;;1.67;;
47892;SDS011;33650;51.064;13.756;2022-10-26T03:41:22;3.80;;;1.73;;
47892;SDS011;33650;51.064;13.756;2022-10-26T03:43:53;3.15;;;2.33;;
47892;SDS011;33650;51.064;13.756;2022-10-26T03:46:24;3.25;;;1.50;;
47892;SDS011;33650;51.064;13.756;2022-10-26T03:48:55;2.60;;;1.55;;
47892;SDS011;33650;51.064;13.756;2022-10-26T03:51:26;5.63;;;2.88;;
47892;SDS011;33650;51.064;13.756;2022-10-26T03:53:57;8.88;;;2.00;;
47892;SDS011;33650;51.064;13.756;2022-10-26T03:56:28;4.45;;;3.00;;
47892;SDS011;33650;51.064;13.756;2022-10-26T03:58:59;4.80;;;2.45;;
47892;SDS011;33650;51.064;13.756;2022-10-26T04:01:30;3.13;;;2.38;;
47892;SDS011;33650;51.064;13.756;2022-10-26T04:04:02;3.38;;;2.78;;
47892;SDS011;33650;51.064;13.756;2022-10-26T04:06:33;3.88;;;2.90;;
47892;SDS011;33650;51.064;13.756;2022-10-26T04:09:04;3.28;;;2.20;;
47892;SDS011;33650;51.064;13.756;2022-10-26T04:11:37;3.13;;;2.08;;
47892;SDS011;33650;51.064;13.756;2022-10-26T04:14:08;5.40;;;3.17;;
47892;SDS011;33650;51.064;13.756;2022-10-26T04:16:39;2.20;;;1.90;;
47892;SDS011;33650;51.064;13.756;2022-10-26T04:19:10;4.35;;;2.20;;
47892;SDS011;33650;51.064;13.756;2022-10-26T04:21:41;3.70;;;2.60;;
47892;SDS011;33650;51.064;13.756;2022-10-26T04:24:12;6.05;;;3.53;;
47892;SDS011;33650;51.064;13.756;2022-10-26T04:26:43;5.38;;;2.40;;
47892;SDS011;33650;51.064;13.756;2022-10-26T04:29:14;4.00;;;2.38;;
47892;SDS011;33650;51.064;13.756;2022-10-26T04:31:45;7.65;;;3.58;;
47892;SDS011;33650;51.064;13.756;2022-10-26T04:34:16;5.03;;;3.70;;
47892;SDS011;33650;51.064;13.756;2022-10-26T04:36:47;9.68;;;2.97;;
47892;SDS011;33650;51.064;13.756;2022-10-26T04:39:18;4.97;;;2.83;;
47892;SDS011;33650;51.064;13.756;2022-10-26T04:41:49;2.75;;;2.22;;
47892;SDS011;33650;51.064;13.756;2022-10-26T04:44:20;4.63;;;2.47;;
47892;SDS011;33650;51.064;13.756;2022-10-26T04:46:51;6.15;;;4.18;;
47892;SDS011;33650;51.064;13.756;2022-10-26T04:49:22;6.82;;;2.95;;
47892;SDS011;33650;51.064;13.756;2022-10-26T04:51:53;2.47;;;2.22;;
47892;SDS011;33650;51.064;13.756;2022-10-26T04:54:24;5.47;;;3.58;;
47892;SDS011;33650;51.064;13.756;2022-10-26T04:56:55;4.03;;;2.83;;
47892;SDS011;33650;51.064;13.756;2022-10-26T04:59:26;4.95;;;3.00;;
47892;SDS011;33650;51.064;13.756;2022-10-26T05:01:57;4.32;;;2.75;;
47892;SDS011;33650;51.064;13.756;2022-10-26T05:04:28;3.53;;;2.58;;
47892;SDS011;33650;51.064;13.756;2022-10-26T05:06:59;3.90;;;2.25;;
47892;SDS011;33650;51.064;13.756;2022-10-26T05:09:30;3.83;;;2.90;;
47892;SDS011;33650;51.064;13.756;2022-10-26T05:12:01;21.52;;;4.60;;
47892;SDS011;33650;51.064;13.756;2022-10-26T05:14:33;6.93;;;3.97;;
47892;SDS011;33650;51.064;13.756;2022-10-26T05:17:04;4.97;;;2.75;;
47892;SDS011;33650;51.064;13.756;2022-10-26T05:19:35;3.75;;;2.88;;
47892;SDS011;33650;51.064;13.756;2022-10-26T05:22:06;7.45;;;4.07;;
47892;SDS011;33650;51.064;13.756;2022-10-26T05:24:37;7.60;;;2.90;;
47892;SDS011;33650;51.064;13.756;2022-10-26T05:27:08;5.10;;;2.80;;
47892;SDS011;33650;51.064;13.756;2022-10-26T05:29:39;2.80;;;2.60;;
47892;SDS011;33650;51.064;13.756;2022-10-26T05:32:10;5.72;;;3.55;;
47892;SDS011;33650;51.064;13.756;2022-10-26T05:34:41;5.78;;;2.92;;
47892;SDS011;33650;51.064;13.756;2022-10-26T05:37:12;7.63;;;4.63;;
47892;SDS011;33650;51.064;13.756;2022-10-26T05:39:43;5.68;;;3.20;;
47892;SDS011;33650;51.064;13.756;2022-10-26T05:42:14;3.15;;;2.33;;
47892;SDS011;33650;51.064;13.756;2022-10-26T05:44:45;4.55;;;2.83;;
47892;SDS011;33650;51.064;13.756;2022-10-26T05:47:16;5.63;;;3.75;;
47892;SDS011;33650;51.064;13.756;2022-10-26T05:49:47;6.45;;;3.72;;
47892;SDS011;33650;51.064;13.756;2022-10-26T05:52:18;3.47;;;2.67;;
47892;SDS011;33650;51.064;13.756;2022-10-26T05:54:49;5.18;;;3.38;;
47892;SDS011;33650;51.064;13.756;2022-10-26T05:57:20;4.63;;;3.13;;
47892;SDS011;33650;51.064;13.756;2022-10-26T05:59:51;3.45;;;2.28;;
47892;SDS011;33650;51.064;13.756;2022-10-26T06:02:30;7.65;;;3.83;;
47892;SDS011;33650;51.064;13.756;2022-10-26T06:07:34;12.80;;;2.90;;
47892;SDS011;33650;51.064;13.756;2022-10-26T06:10:05;6.03;;;4.70;;
47892;SDS011;33650;51.064;13.756;2022-10-26T06:12:36;6.15;;;3.75;;
47892;SDS011;33650;51.064;13.756;2022-10-26T06:15:10;10.57;;;5.72;;
47892;SDS011;33650;51.064;13.756;2022-10-26T06:20:24;6.35;;;2.63;;
47892;SDS011;33650;51.064;13.756;2022-10-26T06:25:42;4.85;;;3.47;;
47892;SDS011;33650;51.064;13.756;2022-10-26T06:30:57;4.60;;;2.65;;
47892;SDS011;33650;51.064;13.756;2022-10-26T06:33:28;4.55;;;3.15;;
47892;SDS011;33650;51.064;13.756;2022-10-26T06:38:30;3.95;;;3.60;;
47892;SDS011;33650;51.064;13.756;2022-10-26T06:41:06;5.25;;;3.10;;
47892;SDS011;33650;51.064;13.756;2022-10-26T06:43:40;4.22;;;3.38;;
47892;SDS011;33650;51.064;13.756;2022-10-26T06:51:19;3.22;;;2.20;;
47892;SDS011;33650;51.064;13.756;2022-10-26T06:53:55;9.95;;;3.33;;
47892;SDS011;33650;51.064;13.756;2022-10-26T06:56:26;9.50;;;3.75;;
47892;SDS011;33650;51.064;13.756;2022-10-26T06:58:59;4.25;;;2.70;;
47892;SDS011;33650;51.064;13.756;2022-10-26T07:01:34;3.35;;;3.05;;
47892;SDS011;33650;51.064;13.756;2022-10-26T07:04:05;4.75;;;3.22;;
47892;SDS011;33650;51.064;13.756;2022-10-26T07:06:36;4.70;;;2.70;;
47892;SDS011;33650;51.064;13.756;2022-10-26T07:09:07;7.93;;;4.07;;
47892;SDS011;33650;51.064;13.756;2022-10-26T07:11:38;6.63;;;4.05;;
47892;SDS011;33650;51.064;13.756;2022-10-26T07:14:09;5.32;;;3.00;;
47892;SDS011;33650;51.064;13.756;2022-10-26T07:16:40;6.45;;;3.92;;
47892;SDS011;33650;51.064;13.756;2022-10-26T07:19:11;5.30;;;2.50;;
47892;SDS011;33650;51.064;13.756;2022-10-26T07:21:42;4.00;;;3.13;;
47892;SDS011;33650;51.064;13.756;2022-10-26T07:24:13;9.80;;;4.18;;
47892;SDS011;33650;51.064;13.756;2022-10-26T07:26:44;4.60;;;2.67;;
47892;SDS011;33650;51.064;13.756;2022-10-26T07:29:15;4.38;;;3.20;;
47892;SDS011;33650;51.064;13.756;2022-10-26T07:31:47;5.18;;;3.55;;
47892;SDS011;33650;51.064;13.756;2022-10-26T07:34:18;6.90;;;4.75;;
47892;SDS011;33650;51.064;13.756;2022-10-26T07:36:49;6.15;;;3.90;;
47892;SDS011;33650;51.064;13.756;2022-10-26T07:39:20;5.93;;;3.83;;
47892;SDS011;33650;51.064;13.756;2022-10-26T07:41:51;2.67;;;1.90;;
47892;SDS011;33650;51.064;13.756;2022-10-26T07:44:22;4.15;;;3.00;;
47892;SDS011;33650;51.064;13.756;2022-10-26T07:46:54;3.08;;;2.58;;
47892;SDS011;33650;51.064;13.756;2022-10-26T07:49:26;5.85;;;3.88;;
47892;SDS011;33650;51.064;13.756;2022-10-26T07:51:57;3.05;;;2.85;;
47892;SDS011;33650;51.064;13.756;2022-10-26T07:54:28;5.80;;;3.15;;
47892;SDS011;33650;51.064;13.756;2022-10-26T07:56:59;4.93;;;3.70;;
47892;SDS011;33650;51.064;13.756;2022-10-26T07:59:30;5.32;;;4.22;;
47892;SDS011;33650;51.064;13.756;2022-10-26T08:02:01;5.28;;;3.42;;
47892;SDS011;33650;51.064;13.756;2022-10-26T08:04:32;5.05;;;3.42;;
47892;SDS011;33650;51.064;13.756;2022-10-26T08:07:03;6.28;;;3.80;;
47892;SDS011;33650;51.064;13.756;2022-10-26T08:09:34;3.95;;;3.55;;
47892;SDS011;33650;51.064;13.756;2022-10-26T08:12:05;3.38;;;2.17;;
47892;SDS011;33650;51.064;13.756;2022-10-26T08:14:36;5.13;;;3.45;;
47892;SDS011;33650;51.064;13.756;2022-10-26T08:17:07;5.50;;;2.88;;
47892;SDS011;33650;51.064;13.756;2022-10-26T08:19:38;5.40;;;3.83;;
47892;SDS011;33650;51.064;13.756;2022-10-26T08:22:09;3.25;;;2.72;;
47892;SDS011;33650;51.064;13.756;2022-10-26T08:24:40;6.03;;;2.72;;
47892;SDS011;33650;51.064;13.756;2022-10-26T08:27:13;4.35;;;3.95;;
47892;SDS011;33650;51.064;13.756;2022-10-26T08:29:44;3.80;;;2.60;;
47892;SDS011;33650;51.064;13.756;2022-10-26T08:32:15;9.15;;;3.90;;
47892;SDS011;33650;51.064;13.756;2022-10-26T08:34:46;5.82;;;3.83;;
47892;SDS011;33650;51.064;13.756;2022-10-26T08:37:17;6.63;;;3.90;;
47892;SDS011;33650;51.064;13.756;2022-10-26T08:39:48;3.58;;;2.08;;
47892;SDS011;33650;51.064;13.756;2022-10-26T08:42:21;5.57;;;2.88;;
47892;SDS011;33650;51.064;13.756;2022-10-26T08:44:54;6.00;;;3.38;;
47892;SDS011;33650;51.064;13.756;2022-10-26T08:47:29;5.97;;;3.58;;
47892;SDS011;33650;51.064;13.756;2022-10-26T08:50:08;5.13;;;3.10;;
47892;SDS011;33650;51.064;13.756;2022-10-26T08:52:43;6.22;;;2.95;;
47892;SDS011;33650;51.064;13.756;2022-10-26T08:55:18;6.53;;;3.38;;
47892;SDS011;33650;51.064;13.756;2022-10-26T08:57:50;5.07;;;3.60;;
47892;SDS011;33650;51.064;13.756;2022-10-26T09:00:24;6.28;;;3.00;;
47892;SDS011;33650;51.064;13.756;2022-10-26T09:02:55;4.63;;;2.50;;
47892;SDS011;33650;51.064;13.756;2022-10-26T09:05:37;4.63;;;2.30;;
47892;SDS011;33650;51.064;13.756;2022-10-26T09:11:05;6.78;;;3.17;;
47892;SDS011;33650;51.064;13.756;2022-10-26T09:13:41;3.17;;;2.53;;
47892;SDS011;33650;51.064;13.756;2022-10-26T09:21:33;6.75;;;3.08;;
47892;SDS011;33650;51.064;13.756;2022-10-26T09:26:54;7.05;;;2.70;;
47892;SDS011;33650;51.064;13.756;2022-10-26T09:29:26;3.30;;;2.70;;
47892;SDS011;33650;51.064;13.756;2022-10-26T09:31:59;3.67;;;2.40;;
47892;SDS011;33650;51.064;13.756;2022-10-26T09:34:33;4.03;;;3.35;;
47892;SDS011;33650;51.064;13.756;2022-10-26T09:37:50;4.78;;;3.55;;
47892;SDS011;33650;51.064;13.756;2022-10-26T09:40:12;27.77;;;4.63;;
47892;SDS011;33650;51.064;13.756;2022-10-26T09:43:05;4.97;;;3.90;;
47892;SDS011;33650;51.064;13.756;2022-10-26T09:45:58;5.88;;;3.58;;
47892;SDS011;33650;51.064;13.756;2022-10-26T09:48:35;6.93;;;3.25;;
47892;SDS011;33650;51.064;13.756;2022-10-26T09:51:08;4.00;;;3.08;;
47892;SDS011;33650;51.064;13.756;2022-10-26T09:53:40;4.60;;;3.65;;
47892;SDS011;33650;51.064;13.756;2022-10-26T09:56:12;4.93;;;3.03;;
47892;SDS011;33650;51.064;13.756;2022-10-26T09:58:45;5.93;;;3.58;;
47892;SDS011;33650;51.064;13.756;2022-10-26T10:01:34;4.60;;;3.85;;
47892;SDS011;33650;51.064;13.756;2022-10-26T10:06:49;5.50;;;3.33;;
47892;SDS011;33650;51.064;13.756;2022-10-26T10:09:22;7.22;;;4.53;;
47892;SDS011;33650;51.064;13.756;2022-10-26T10:12:02;5.18;;;3.10;;
47892;SDS011;33650;51.064;13.756;2022-10-26T10:14:38;5.15;;;3.63;;
47892;SDS011;33650;51.064;13.756;2022-10-26T10:17:19;4.45;;;2.92;;
47892;SDS011;33650;51.064;13.756;2022-10-26T10:19:51;7.07;;;2.38;;
47892;SDS011;33650;51.064;13.756;2022-10-26T10:22:25;2.58;;;2.33;;
47892;SDS011;33650;51.064;13.756;2022-10-26T10:24:57;3.65;;;2.63;;
47892;SDS011;33650;51.064;13.756;2022-10-26T10:27:29;10.52;;;3.70;;
47892;SDS011;33650;51.064;13.756;2022-10-26T10:33:03;2.92;;;2.03;;
47892;SDS011;33650;51.064;13.756;2022-10-26T10:35:34;5.05;;;2.55;;
47892;SDS011;33650;51.064;13.756;2022-10-26T10:38:10;3.78;;;2.78;;
47892;SDS011;33650;51.064;13.756;2022-10-26T10:40:48;4.13;;;2.65;;
47892;SDS011;33650;51.064;13.756;2022-10-26T10:43:19;1.52;;;1.33;;
47892;SDS011;33650;51.064;13.756;2022-10-26T10:45:52;2.85;;;2.55;;
47892;SDS011;33650;51.064;13.756;2022-10-26T10:48:26;4.35;;;1.80;;
47892;SDS011;33650;51.064;13.756;2022-10-26T10:51:04;2.25;;;1.77;;
47892;SDS011;33650;51.064;13.756;2022-10-26T10:53:51;10.43;;;2.17;;
47892;SDS011;33650;51.064;13.756;2022-10-26T10:56:27;1.95;;;1.65;;
47892;SDS011;33650;51.064;13.756;2022-10-26T11:01:34;1.67;;;1.50;;
47892;SDS011;33650;51.064;13.756;2022-10-26T11:04:23;1.95;;;1.63;;
47892;SDS011;33650;51.064;13.756;2022-10-26T11:06:58;4.90;;;1.33;;
47892;SDS011;33650;51.064;13.756;2022-10-26T11:09:30;5.00;;;2.97;;
47892;SDS011;33650;51.064;13.756;2022-10-26T11:12:07;2.85;;;1.85;;
47892;SDS011;33650;51.064;13.756;2022-10-26T11:14:44;4.40;;;1.58;;
47892;SDS011;33650;51.064;13.756;2022-10-26T11:17:17;1.25;;;1.10;;
47892;SDS011;33650;51.064;13.756;2022-10-26T11:19:52;3.78;;;1.48;;
47892;SDS011;33650;51.064;13.756;2022-10-26T11:22:28;3.20;;;2.25;;
47892;SDS011;33650;51.064;13.756;2022-10-26T11:25:02;1.48;;;1.08;;
47892;SDS011;33650;51.064;13.756;2022-10-26T11:27:37;1.25;;;0.98;;
47892;SDS011;33650;51.064;13.756;2022-10-26T11:30:13;2.65;;;0.98;;
47892;SDS011;33650;51.064;13.756;2022-10-26T11:32:55;1.25;;;0.82;;
47892;SDS011;33650;51.064;13.756;2022-10-26T11:35:34;2.72;;;1.52;;
47892;SDS011;33650;51.064;13.756;2022-10-26T11:40:44;1.85;;;1.10;;
47892;SDS011;33650;51.064;13.756;2022-10-26T11:43:22;1.55;;;1.30;;
47892;SDS011;33650;51.064;13.756;2022-10-26T11:46:04;2.55;;;1.42;;
47892;SDS011;33650;51.064;13.756;2022-10-26T11:48:39;1.60;;;1.25;;
47892;SDS011;33650;51.064;13.756;2022-10-26T11:51:30;2.08;;;0.40;;
47892;SDS011;33650;51.064;13.756;2022-10-26T11:54:09;2.05;;;0.88;;
47892;SDS011;33650;51.064;13.756;2022-10-26T11:56:45;1.85;;;1.40;;
47892;SDS011;33650;51.064;13.756;2022-10-26T11:59:18;1.65;;;1.17;;
47892;SDS011;33650;51.064;13.756;2022-10-26T12:01:50;2.50;;;1.13;;
47892;SDS011;33650;51.064;13.756;2022-10-26T12:04:22;2.05;;;1.85;;
47892;SDS011;33650;51.064;13.756;2022-10-26T12:06:55;1.70;;;0.75;;
47892;SDS011;33650;51.064;13.756;2022-10-26T12:09:31;1.95;;;1.02;;
47892;SDS011;33650;51.064;13.756;2022-10-26T12:14:42;2.97;;;0.98;;
47892;SDS011;33650;51.064;13.756;2022-10-26T12:17:25;2.55;;;0.60;;
47892;SDS011;33650;51.064;13.756;2022-10-26T12:20:17;2.30;;;0.85;;
47892;SDS011;33650;51.064;13.756;2022-10-26T12:22:54;2.03;;;1.02;;
47892;SDS011;33650;51.064;13.756;2022-10-26T12:25:25;0.70;;;0.70;;
47892;SDS011;33650;51.064;13.756;2022-10-26T12:27:56;2.08;;;1.30;;
47892;SDS011;33650;51.064;13.756;2022-10-26T12:30:32;2.05;;;1.17;;
47892;SDS011;33650;51.064;13.756;2022-10-26T12:33:26;2.70;;;1.08;;
47892;SDS011;33650;51.064;13.756;2022-10-26T12:35:58;1.63;;;0.95;;
47892;SDS011;33650;51.064;13.756;2022-10-26T12:41:13;1.98;;;0.93;;
47892;SDS011;33650;51.064;13.756;2022-10-26T12:43:48;0.70;;;0.70;;
47892;SDS011;33650;51.064;13.756;2022-10-26T12:48:56;3.42;;;1.67;;
47892;SDS011;33650;51.064;13.756;2022-10-26T12:56:50;1.35;;;0.90;;
47892;SDS011;33650;51.064;13.756;2022-10-26T12:59:38;0.85;;;0.85;;
47892;SDS011;33650;51.064;13.756;2022-10-26T13:07:44;0.68;;;0.55;;
47892;SDS011;33650;51.064;13.756;2022-10-26T13:10:19;3.10;;;0.70;;
47892;SDS011;33650;51.064;13.756;2022-10-26T13:13:01;1.83;;;1.00;;
47892;SDS011;33650;51.064;13.756;2022-10-26T13:15:38;1.60;;;0.82;;
47892;SDS011;33650;51.064;13.756;2022-10-26T13:18:12;0.40;;;0.40;;
47892;SDS011;33650;51.064;13.756;2022-10-26T13:20:51;1.45;;;0.50;;
47892;SDS011;33650;51.064;13.756;2022-10-26T13:23:24;0.40;;;0.40;;
47892;SDS011;33650;51.064;13.756;2022-10-26T13:28:43;0.40;;;0.40;;
47892;SDS011;33650;51.064;13.756;2022-10-26T13:31:51;0.55;;;0.55;;
47892;SDS011;33650;51.064;13.756;2022-10-26T13:36:45;1.25;;;1.00;;
47892;SDS011;33650;51.064;13.756;2022-10-26T13:39:21;2.00;;;0.63;;
47892;SDS011;33650;51.064;13.756;2022-10-26T13:41:53;0.75;;;0.50;;
47892;SDS011;33650;51.064;13.756;2022-10-26T13:49:59;0.88;;;0.88;;
47892;SDS011;33650;51.064;13.756;2022-10-26T13:52:34;2.17;;;0.95;;
47892;SDS011;33650;51.064;13.756;2022-10-26T13:57:44;1.95;;;0.85;;
47892;SDS011;33650;51.064;13.756;2022-10-26T14:00:20;1.70;;;1.02;;
47892;SDS011;33650;51.064;13.756;2022-10-26T14:02:52;1.77;;;1.25;;
47892;SDS011;33650;51.064;13.756;2022-10-26T14:05:23;1.25;;;1.10;;
47892;SDS011;33650;51.064;13.756;2022-10-26T14:07:55;1.25;;;1.05;;
47892;SDS011;33650;51.064;13.756;2022-10-26T14:10:28;2.05;;;0.98;;
47892;SDS011;33650;51.064;13.756;2022-10-26T14:12:59;2.55;;;1.23;;
47892;SDS011;33650;51.064;13.756;2022-10-26T14:15:31;1.25;;;1.13;;
47892;SDS011;33650;51.064;13.756;2022-10-26T14:18:02;2.10;;;1.17;;
47892;SDS011;33650;51.064;13.756;2022-10-26T14:20:34;2.40;;;1.25;;
47892;SDS011;33650;51.064;13.756;2022-10-26T14:23:22;1.33;;;1.23;;
47892;SDS011;33650;51.064;13.756;2022-10-26T14:25:55;5.57;;;1.63;;
47892;SDS011;33650;51.064;13.756;2022-10-26T14:28:37;4.20;;;1.60;;
47892;SDS011;33650;51.064;13.756;2022-10-26T14:31:20;4.72;;;1.40;;
47892;SDS011;33650;51.064;13.756;2022-10-26T14:33:52;3.00;;;1.25;;
47892;SDS011;33650;51.064;13.756;2022-10-26T14:39:30;3.25;;;0.80;;
47892;SDS011;33650;51.064;13.756;2022-10-26T14:42:48;6.82;;;1.42;;
47892;SDS011;33650;51.064;13.756;2022-10-26T14:44:54;5.15;;;1.98;;
47892;SDS011;33650;51.064;13.756;2022-10-26T14:47:26;1.23;;;1.13;;
47892;SDS011;33650;51.064;13.756;2022-10-26T14:49:58;3.42;;;0.77;;
47892;SDS011;33650;51.064;13.756;2022-10-26T14:52:33;3.33;;;1.42;;
47892;SDS011;33650;51.064;13.756;2022-10-26T14:55:14;6.97;;;1.00;;
47892;SDS011;33650;51.064;13.756;2022-10-26T14:57:47;2.25;;;1.45;;
47892;SDS011;33650;51.064;13.756;2022-10-26T15:00:20;1.83;;;1.15;;
47892;SDS011;33650;51.064;13.756;2022-10-26T15:02:53;1.50;;;1.40;;
47892;SDS011;33650;51.064;13.756;2022-10-26T15:05:32;2.00;;;1.70;;
47892;SDS011;33650;51.064;13.756;2022-10-26T15:08:38;2.65;;;1.52;;
47892;SDS011;33650;51.064;13.756;2022-10-26T15:10:55;2.63;;;1.90;;
47892;SDS011;33650;51.064;13.756;2022-10-26T15:13:29;3.30;;;1.58;;
47892;SDS011;33650;51.064;13.756;2022-10-26T15:16:08;10.63;;;5.40;;
47892;SDS011;33650;51.064;13.756;2022-10-26T15:18:40;2.55;;;2.35;;
47892;SDS011;33650;51.064;13.756;2022-10-26T15:23:58;1.58;;;1.48;;
47892;SDS011;33650;51.064;13.756;2022-10-26T15:26:29;2.67;;;1.20;;
47892;SDS011;33650;51.064;13.756;2022-10-26T15:29:00;3.97;;;2.10;;
47892;SDS011;33650;51.064;13.756;2022-10-26T15:31:32;3.17;;;2.65;;
47892;SDS011;33650;51.064;13.756;2022-10-26T15:36:35;1.55;;;1.45;;
47892;SDS011;33650;51.064;13.756;2022-10-26T15:39:06;2.55;;;1.80;;
47892;SDS011;33650;51.064;13.756;2022-10-26T15:41:43;6.78;;;3.30;;
47892;SDS011;33650;51.064;13.756;2022-10-26T15:44:16;6.07;;;1.73;;
47892;SDS011;33650;51.064;13.756;2022-10-26T15:46:49;3.47;;;1.92;;
47892;SDS011;33650;51.064;13.756;2022-10-26T15:49:20;3.40;;;2.95;;
47892;SDS011;33650;51.064;13.756;2022-10-26T15:51:51;8.00;;;4.28;;
47892;SDS011;33650;51.064;13.756;2022-10-26T15:54:23;4.75;;;2.63;;
47892;SDS011;33650;51.064;13.756;2022-10-26T15:56:54;4.40;;;2.80;;
47892;SDS011;33650;51.064;13.756;2022-10-26T15:59:25;5.30;;;2.30;;
47892;SDS011;33650;51.064;13.756;2022-10-26T16:01:56;6.85;;;4.55;;
47892;SDS011;33650;51.064;13.756;2022-10-26T16:04:27;7.63;;;2.92;;
47892;SDS011;33650;51.064;13.756;2022-10-26T16:06:59;4.22;;;2.95;;
47892;SDS011;33650;51.064;13.756;2022-10-26T16:09:34;5.63;;;3.17;;
47892;SDS011;33650;51.064;13.756;2022-10-26T16:12:08;4.43;;;2.92;;
47892;SDS011;33650;51.064;13.756;2022-10-26T16:14:40;5.18;;;3.08;;
47892;SDS011;33650;51.064;13.756;2022-10-26T16:17:11;4.72;;;3.95;;
47892;SDS011;33650;51.064;13.756;2022-10-26T16:19:42;4.95;;;2.90;;
47892;SDS011;33650;51.064;13.756;2022-10-26T16:22:14;11.15;;;6.13;;
47892;SDS011;33650;51.064;13.756;2022-10-26T16:24:45;5.85;;;3.53;;
47892;SDS011;33650;51.064;13.756;2022-10-26T16:27:16;6.82;;;4.07;;
47892;SDS011;33650;51.064;13.756;2022-10-26T16:29:47;5.80;;;3.60;;
47892;SDS011;33650;51.064;13.756;2022-10-26T16:32:18;5.07;;;3.58;;
47892;SDS011;33650;51.064;13.756;2022-10-26T16:34:49;10.82;;;2.55;;
47892;SDS011;33650;51.064;13.756;2022-10-26T16:37:20;4.53;;;2.70;;
47892;SDS011;33650;51.064;13.756;2022-10-26T16:39:51;2.92;;;2.08;;
47892;SDS011;33650;51.064;13.756;2022-10-26T16:42:23;6.10;;;3.25;;
47892;SDS011;33650;51.064;13.756;2022-10-26T16:44:54;19.33;;;8.88;;
47892;SDS011;33650;51.064;13.756;2022-10-26T16:47:25;12.02;;;5.72;;
47892;SDS011;33650;51.064;13.756;2022-10-26T16:49:56;15.68;;;8.55;;
47892;SDS011;33650;51.064;13.756;2022-10-26T16:52:27;9.70;;;5.03;;
47892;SDS011;33650;51.064;13.756;2022-10-26T16:54:58;7.93;;;4.65;;
47892;SDS011;33650;51.064;13.756;2022-10-26T16:57:29;4.40;;;3.80;;
47892;SDS011;33650;51.064;13.756;2022-10-26T17:00:00;6.30;;;3.33;;
47892;SDS011;33650;51.064;13.756;2022-10-26T17:02:32;6.93;;;3.05;;
47892;SDS011;33650;51.064;13.756;2022-10-26T17:05:03;7.88;;;3.13;;
47892;SDS011;33650;51.064;13.756;2022-10-26T17:07:34;6.65;;;3.60;;